sensor_id;sensor_type;location;lat;lon;timestamp;temperature;humidity
40996;DHT22;26723;57.478;12.066;2022-10-30T00:01:25;12.50;99.90
40996;DHT22;26723;57.478;12.066;2022-10-30T00:04:33;12.50;99.90
40996;DHT22;26723;57.478;12.066;2022-10-30T00:07:42;12.50;99.90
40996;DHT22;26723;57.478;12.066;2022-10-30T00:10:52;12.60;99.90
40996;DHT22;26723;57.478;12.066;2022-10-30T00:14:00;12.60;99.90
40996;DHT22;26723;57.478;12.066;2022-10-30T00:17:08;12.60;99.90
40996;DHT22;26723;57.478;12.066;2022-10-30T00:20:17;12.60;99.90
40996;DHT22;26723;57.478;12.066;2022-10-30T00:23:25;12.60;99.90
40996;DHT22;26723;57.478;12.066;2022-10-30T00:26:35;12.60;99.90
40996;DHT22;26723;57.478;12.066;2022-10-30T00:29:43;12.60;99.90
40996;DHT22;26723;57.478;12.066;2022-10-30T00:32:52;12.60;99.90
40996;DHT22;26723;57.478;12.066;2022-10-30T00:36:01;12.60;99.90
40996;DHT22;26723;57.478;12.066;2022-10-30T00:39:09;12.60;99.90
40996;DHT22;26723;57.478;12.066;2022-10-30T00:42:19;12.60;99.90
40996;DHT22;26723;57.478;12.066;2022-10-30T00:45:27;12.60;99.90
40996;DHT22;26723;57.478;12.066;2022-10-30T00:48:36;12.60;99.90
40996;DHT22;26723;57.478;12.066;2022-10-30T00:51:46;12.60;99.90
40996;DHT22;26723;57.478;12.066;2022-10-30T00:54:58;12.60;99.90
40996;DHT22;26723;57.478;12.066;2022-10-30T00:58:13;12.60;99.90
40996;DHT22;26723;57.478;12.066;2022-10-30T01:01:24;12.60;99.90
40996;DHT22;26723;57.478;12.066;2022-10-30T01:04:35;12.60;99.90
40996;DHT22;26723;57.478;12.066;2022-10-30T01:07:45;12.60;99.90
40996;DHT22;26723;57.478;12.066;2022-10-30T01:10:53;12.60;99.90
40996;DHT22;26723;57.478;12.066;2022-10-30T01:14:07;12.70;99.90
40996;DHT22;26723;57.478;12.066;2022-10-30T01:17:34;12.70;99.90
40996;DHT22;26723;57.478;12.066;2022-10-30T01:21:18;12.70;99.90
40996;DHT22;26723;57.478;12.066;2022-10-30T01:24:41;12.60;99.90
40996;DHT22;26723;57.478;12.066;2022-10-30T01:27:57;12.70;99.90
40996;DHT22;26723;57.478;12.066;2022-10-30T01:31:21;12.70;99.90
40996;DHT22;26723;57.478;12.066;2022-10-30T01:34:38;12.70;99.90
40996;DHT22;26723;57.478;12.066;2022-10-30T01:37:55;12.60;99.90
40996;DHT22;26723;57.478;12.066;2022-10-30T01:41:05;12.60;99.90
40996;DHT22;26723;57.478;12.066;2022-10-30T01:44:16;12.60;99.90
40996;DHT22;26723;57.478;12.066;2022-10-30T01:47:36;12.60;99.90
40996;DHT22;26723;57.478;12.066;2022-10-30T01:50:55;12.60;99.90
40996;DHT22;26723;57.478;12.066;2022-10-30T01:54:11;12.60;99.90
40996;DHT22;26723;57.478;12.066;2022-10-30T01:57:32;12.60;99.90
40996;DHT22;26723;57.478;12.066;2022-10-30T02:00:45;12.60;99.90
40996;DHT22;26723;57.478;12.066;2022-10-30T02:03:57;12.60;99.90
40996;DHT22;26723;57.478;12.066;2022-10-30T02:07:05;12.60;99.90
40996;DHT22;26723;57.478;12.066;2022-10-30T02:10:20;12.60;99.90
40996;DHT22;26723;57.478;12.066;2022-10-30T02:13:29;12.60;99.90
40996;DHT22;26723;57.478;12.066;2022-10-30T02:16:41;12.50;99.90
40996;DHT22;26723;57.478;12.066;2022-10-30T02:19:53;12.50;99.90
40996;DHT22;26723;57.478;12.066;2022-10-30T02:23:04;12.50;99.90
40996;DHT22;26723;57.478;12.066;2022-10-30T02:26:14;12.50;99.90
40996;DHT22;26723;57.478;12.066;2022-10-30T02:29:22;12.50;99.90
40996;DHT22;26723;57.478;12.066;2022-10-30T02:32:30;12.40;99.90
40996;DHT22;26723;57.478;12.066;2022-10-30T02:35:39;12.40;99.90
40996;DHT22;26723;57.478;12.066;2022-10-30T02:38:48;12.40;99.90
40996;DHT22;26723;57.478;12.066;2022-10-30T02:41:57;12.40;99.90
40996;DHT22;26723;57.478;12.066;2022-10-30T02:45:08;12.40;99.90
40996;DHT22;26723;57.478;12.066;2022-10-30T02:48:17;12.40;99.90
40996;DHT22;26723;57.478;12.066;2022-10-30T02:51:26;12.40;99.90
40996;DHT22;26723;57.478;12.066;2022-10-30T02:54:36;12.40;99.90
40996;DHT22;26723;57.478;12.066;2022-10-30T02:57:45;12.40;99.90
40996;DHT22;26723;57.478;12.066;2022-10-30T03:00:53;12.40;99.90
40996;DHT22;26723;57.478;12.066;2022-10-30T03:04:01;12.40;99.90
40996;DHT22;26723;57.478;12.066;2022-10-30T03:07:10;12.40;99.90
40996;DHT22;26723;57.478;12.066;2022-10-30T03:10:20;12.40;99.90
40996;DHT22;26723;57.478;12.066;2022-10-30T03:13:30;12.30;99.90
40996;DHT22;26723;57.478;12.066;2022-10-30T03:16:38;12.30;99.90
40996;DHT22;26723;57.478;12.066;2022-10-30T03:19:47;12.40;99.90
40996;DHT22;26723;57.478;12.066;2022-10-30T03:22:55;12.40;99.90
40996;DHT22;26723;57.478;12.066;2022-10-30T03:26:05;12.40;99.90
40996;DHT22;26723;57.478;12.066;2022-10-30T03:29:27;12.40;99.90
40996;DHT22;26723;57.478;12.066;2022-10-30T03:32:36;12.30;99.90
40996;DHT22;26723;57.478;12.066;2022-10-30T03:35:44;12.30;99.90
40996;DHT22;26723;57.478;12.066;2022-10-30T03:38:53;12.40;99.90
40996;DHT22;26723;57.478;12.066;2022-10-30T03:42:04;12.40;99.90
40996;DHT22;26723;57.478;12.066;2022-10-30T03:45:13;12.30;99.90
40996;DHT22;26723;57.478;12.066;2022-10-30T03:48:22;12.30;99.90
40996;DHT22;26723;57.478;12.066;2022-10-30T03:51:32;12.30;99.90
40996;DHT22;26723;57.478;12.066;2022-10-30T03:54:40;12.40;99.90
40996;DHT22;26723;57.478;12.066;2022-10-30T03:57:53;12.40;99.90
40996;DHT22;26723;57.478;12.066;2022-10-30T04:01:04;12.40;99.90
40996;DHT22;26723;57.478;12.066;2022-10-30T04:04:17;12.30;99.90
40996;DHT22;26723;57.478;12.066;2022-10-30T04:07:25;12.30;99.90
40996;DHT22;26723;57.478;12.066;2022-10-30T04:10:35;12.30;99.90
40996;DHT22;26723;57.478;12.066;2022-10-30T04:13:49;12.30;99.90
40996;DHT22;26723;57.478;12.066;2022-10-30T04:16:57;12.30;99.90
40996;DHT22;26723;57.478;12.066;2022-10-30T04:20:07;12.30;99.90
40996;DHT22;26723;57.478;12.066;2022-10-30T04:23:18;12.30;99.90
40996;DHT22;26723;57.478;12.066;2022-10-30T04:26:27;12.20;99.90
40996;DHT22;26723;57.478;12.066;2022-10-30T04:29:37;12.30;99.90
40996;DHT22;26723;57.478;12.066;2022-10-30T04:32:48;12.30;99.90
40996;DHT22;26723;57.478;12.066;2022-10-30T04:35:57;12.30;99.90
40996;DHT22;26723;57.478;12.066;2022-10-30T04:39:06;12.30;99.90
40996;DHT22;26723;57.478;12.066;2022-10-30T04:42:14;12.30;99.90
40996;DHT22;26723;57.478;12.066;2022-10-30T04:45:24;12.40;99.90
40996;DHT22;26723;57.478;12.066;2022-10-30T04:48:34;12.30;99.90
40996;DHT22;26723;57.478;12.066;2022-10-30T04:51:43;12.40;99.90
40996;DHT22;26723;57.478;12.066;2022-10-30T04:54:52;12.40;99.90
40996;DHT22;26723;57.478;12.066;2022-10-30T04:58:01;12.40;99.90
40996;DHT22;26723;57.478;12.066;2022-10-30T05:01:15;12.40;99.90
40996;DHT22;26723;57.478;12.066;2022-10-30T05:04:24;12.40;99.90
40996;DHT22;26723;57.478;12.066;2022-10-30T05:07:32;12.40;99.90
40996;DHT22;26723;57.478;12.066;2022-10-30T05:10:41;12.30;99.90
40996;DHT22;26723;57.478;12.066;2022-10-30T05:13:49;12.30;99.90
40996;DHT22;26723;57.478;12.066;2022-10-30T05:16:59;12.40;99.90
40996;DHT22;26723;57.478;12.066;2022-10-30T05:20:08;12.30;99.90
40996;DHT22;26723;57.478;12.066;2022-10-30T05:23:22;12.30;99.90
40996;DHT22;26723;57.478;12.066;2022-10-30T05:26:31;12.20;99.90
40996;DHT22;26723;57.478;12.066;2022-10-30T05:29:39;12.20;99.90
40996;DHT22;26723;57.478;12.066;2022-10-30T05:32:50;12.20;99.90
40996;DHT22;26723;57.478;12.066;2022-10-30T05:36:05;12.20;99.90
40996;DHT22;26723;57.478;12.066;2022-10-30T05:39:14;12.20;99.90
40996;DHT22;26723;57.478;12.066;2022-10-30T05:42:26;12.20;99.90
40996;DHT22;26723;57.478;12.066;2022-10-30T05:45:37;12.20;99.90
40996;DHT22;26723;57.478;12.066;2022-10-30T05:48:48;12.20;99.90
40996;DHT22;26723;57.478;12.066;2022-10-30T05:51:57;12.20;99.90
40996;DHT22;26723;57.478;12.066;2022-10-30T05:55:06;12.20;99.90
40996;DHT22;26723;57.478;12.066;2022-10-30T05:58:50;12.20;99.90
40996;DHT22;26723;57.478;12.066;2022-10-30T06:01:58;12.20;99.90
40996;DHT22;26723;57.478;12.066;2022-10-30T06:05:08;12.10;99.90
40996;DHT22;26723;57.478;12.066;2022-10-30T06:08:17;12.10;99.90
40996;DHT22;26723;57.478;12.066;2022-10-30T06:11:28;12.10;99.90
40996;DHT22;26723;57.478;12.066;2022-10-30T06:14:38;12.10;99.90
40996;DHT22;26723;57.478;12.066;2022-10-30T06:17:47;12.10;99.90
40996;DHT22;26723;57.478;12.066;2022-10-30T06:21:17;12.10;99.90
40996;DHT22;26723;57.478;12.066;2022-10-30T06:24:43;12.10;99.90
40996;DHT22;26723;57.478;12.066;2022-10-30T06:28:02;12.10;99.90
40996;DHT22;26723;57.478;12.066;2022-10-30T06:31:11;12.10;99.90
40996;DHT22;26723;57.478;12.066;2022-10-30T06:34:19;12.10;99.90
40996;DHT22;26723;57.478;12.066;2022-10-30T06:37:30;12.00;99.90
40996;DHT22;26723;57.478;12.066;2022-10-30T06:40:45;12.00;99.90
40996;DHT22;26723;57.478;12.066;2022-10-30T06:44:02;12.00;99.90
40996;DHT22;26723;57.478;12.066;2022-10-30T06:47:11;12.00;99.90
40996;DHT22;26723;57.478;12.066;2022-10-30T06:50:21;12.00;99.90
40996;DHT22;26723;57.478;12.066;2022-10-30T06:53:32;11.90;99.90
40996;DHT22;26723;57.478;12.066;2022-10-30T06:57:19;11.90;99.90
40996;DHT22;26723;57.478;12.066;2022-10-30T07:00:43;11.90;99.90
40996;DHT22;26723;57.478;12.066;2022-10-30T07:04:01;12.00;99.90
40996;DHT22;26723;57.478;12.066;2022-10-30T07:07:10;12.00;99.90
40996;DHT22;26723;57.478;12.066;2022-10-30T07:10:20;12.10;99.90
40996;DHT22;26723;57.478;12.066;2022-10-30T07:13:58;12.10;99.90
40996;DHT22;26723;57.478;12.066;2022-10-30T07:17:29;12.10;99.90
40996;DHT22;26723;57.478;12.066;2022-10-30T07:20:41;12.20;99.90
40996;DHT22;26723;57.478;12.066;2022-10-30T07:23:50;12.20;99.90
40996;DHT22;26723;57.478;12.066;2022-10-30T07:27:07;12.30;99.90
40996;DHT22;26723;57.478;12.066;2022-10-30T07:30:22;12.30;99.90
40996;DHT22;26723;57.478;12.066;2022-10-30T07:33:58;12.40;99.90
40996;DHT22;26723;57.478;12.066;2022-10-30T07:37:18;12.30;99.90
40996;DHT22;26723;57.478;12.066;2022-10-30T07:40:51;12.40;99.90
40996;DHT22;26723;57.478;12.066;2022-10-30T07:44:19;12.40;99.90
40996;DHT22;26723;57.478;12.066;2022-10-30T07:47:48;12.50;99.90
40996;DHT22;26723;57.478;12.066;2022-10-30T07:51:02;12.50;99.90
40996;DHT22;26723;57.478;12.066;2022-10-30T07:54:13;12.50;99.90
40996;DHT22;26723;57.478;12.066;2022-10-30T07:57:22;12.60;99.90
40996;DHT22;26723;57.478;12.066;2022-10-30T08:01:11;12.60;99.90
40996;DHT22;26723;57.478;12.066;2022-10-30T08:04:20;12.60;99.90
40996;DHT22;26723;57.478;12.066;2022-10-30T08:07:37;12.60;99.90
40996;DHT22;26723;57.478;12.066;2022-10-30T08:10:46;12.60;99.90
40996;DHT22;26723;57.478;12.066;2022-10-30T08:13:55;12.60;99.90
40996;DHT22;26723;57.478;12.066;2022-10-30T08:17:05;12.60;99.90
40996;DHT22;26723;57.478;12.066;2022-10-30T08:20:18;12.60;99.90
40996;DHT22;26723;57.478;12.066;2022-10-30T08:23:28;12.70;99.90
40996;DHT22;26723;57.478;12.066;2022-10-30T08:26:39;12.60;99.90
40996;DHT22;26723;57.478;12.066;2022-10-30T08:29:50;12.60;99.90
40996;DHT22;26723;57.478;12.066;2022-10-30T08:33:02;12.70;99.90
40996;DHT22;26723;57.478;12.066;2022-10-30T08:36:36;12.70;99.90
40996;DHT22;26723;57.478;12.066;2022-10-30T08:39:46;12.70;99.90
40996;DHT22;26723;57.478;12.066;2022-10-30T08:43:14;12.70;99.90
40996;DHT22;26723;57.478;12.066;2022-10-30T08:46:23;12.80;99.90
40996;DHT22;26723;57.478;12.066;2022-10-30T08:49:33;12.80;99.90
40996;DHT22;26723;57.478;12.066;2022-10-30T08:52:42;12.80;99.90
40996;DHT22;26723;57.478;12.066;2022-10-30T08:55:51;12.90;99.90
40996;DHT22;26723;57.478;12.066;2022-10-30T08:59:16;12.90;99.90
40996;DHT22;26723;57.478;12.066;2022-10-30T09:02:29;12.90;99.90
40996;DHT22;26723;57.478;12.066;2022-10-30T09:05:58;13.00;99.90
40996;DHT22;26723;57.478;12.066;2022-10-30T09:09:13;13.00;99.90
40996;DHT22;26723;57.478;12.066;2022-10-30T09:12:25;13.00;99.90
40996;DHT22;26723;57.478;12.066;2022-10-30T09:15:34;13.10;99.90
40996;DHT22;26723;57.478;12.066;2022-10-30T09:18:44;13.10;99.90
40996;DHT22;26723;57.478;12.066;2022-10-30T09:21:54;13.10;99.90
40996;DHT22;26723;57.478;12.066;2022-10-30T09:25:03;13.20;99.90
40996;DHT22;26723;57.478;12.066;2022-10-30T09:28:25;13.20;99.90
40996;DHT22;26723;57.478;12.066;2022-10-30T09:31:52;13.20;99.90
40996;DHT22;26723;57.478;12.066;2022-10-30T09:35:03;13.10;99.90
40996;DHT22;26723;57.478;12.066;2022-10-30T09:38:17;13.20;99.90
40996;DHT22;26723;57.478;12.066;2022-10-30T09:41:38;13.30;99.90
40996;DHT22;26723;57.478;12.066;2022-10-30T09:45:09;13.30;99.90
40996;DHT22;26723;57.478;12.066;2022-10-30T09:52:27;13.30;99.90
40996;DHT22;26723;57.478;12.066;2022-10-30T09:55:44;13.20;99.90
40996;DHT22;26723;57.478;12.066;2022-10-30T09:59:00;13.20;99.90
40996;DHT22;26723;57.478;12.066;2022-10-30T10:02:29;13.30;99.90
40996;DHT22;26723;57.478;12.066;2022-10-30T10:05:42;13.30;99.90
40996;DHT22;26723;57.478;12.066;2022-10-30T10:09:24;13.30;99.90
40996;DHT22;26723;57.478;12.066;2022-10-30T10:12:39;13.30;99.90
40996;DHT22;26723;57.478;12.066;2022-10-30T10:15:53;13.40;99.90
40996;DHT22;26723;57.478;12.066;2022-10-30T10:19:08;13.50;99.90
40996;DHT22;26723;57.478;12.066;2022-10-30T10:22:21;13.60;99.90
40996;DHT22;26723;57.478;12.066;2022-10-30T10:25:30;13.60;99.90
40996;DHT22;26723;57.478;12.066;2022-10-30T10:28:52;13.80;99.90
40996;DHT22;26723;57.478;12.066;2022-10-30T10:36:04;14.10;99.90
40996;DHT22;26723;57.478;12.066;2022-10-30T10:39:32;14.10;99.90
40996;DHT22;26723;57.478;12.066;2022-10-30T10:42:54;14.20;99.90
40996;DHT22;26723;57.478;12.066;2022-10-30T10:46:29;14.50;99.90
40996;DHT22;26723;57.478;12.066;2022-10-30T10:50:00;15.00;99.90
40996;DHT22;26723;57.478;12.066;2022-10-30T10:53:17;15.30;99.90
40996;DHT22;26723;57.478;12.066;2022-10-30T10:56:30;15.40;99.90
40996;DHT22;26723;57.478;12.066;2022-10-30T10:59:44;15.20;99.90
40996;DHT22;26723;57.478;12.066;2022-10-30T11:02:59;15.00;99.90
40996;DHT22;26723;57.478;12.066;2022-10-30T11:06:18;14.90;99.90
40996;DHT22;26723;57.478;12.066;2022-10-30T11:09:27;14.90;99.90
40996;DHT22;26723;57.478;12.066;2022-10-30T11:12:36;15.00;99.90
40996;DHT22;26723;57.478;12.066;2022-10-30T11:15:55;15.20;99.90
40996;DHT22;26723;57.478;12.066;2022-10-30T11:19:08;15.20;99.90
40996;DHT22;26723;57.478;12.066;2022-10-30T11:22:22;15.40;99.90
40996;DHT22;26723;57.478;12.066;2022-10-30T11:25:33;15.60;99.90
40996;DHT22;26723;57.478;12.066;2022-10-30T11:28:48;15.60;99.90
40996;DHT22;26723;57.478;12.066;2022-10-30T11:32:02;15.50;99.90
40996;DHT22;26723;57.478;12.066;2022-10-30T11:35:13;15.60;99.90
40996;DHT22;26723;57.478;12.066;2022-10-30T11:38:25;15.70;99.90
40996;DHT22;26723;57.478;12.066;2022-10-30T11:41:34;15.80;99.90
40996;DHT22;26723;57.478;12.066;2022-10-30T11:44:44;15.70;99.90
40996;DHT22;26723;57.478;12.066;2022-10-30T11:47:53;15.70;99.90
40996;DHT22;26723;57.478;12.066;2022-10-30T11:51:09;15.70;99.90
40996;DHT22;26723;57.478;12.066;2022-10-30T11:54:20;15.60;99.90
40996;DHT22;26723;57.478;12.066;2022-10-30T11:57:33;15.50;99.90
40996;DHT22;26723;57.478;12.066;2022-10-30T12:00:43;15.50;99.90
40996;DHT22;26723;57.478;12.066;2022-10-30T12:03:52;15.50;99.90
40996;DHT22;26723;57.478;12.066;2022-10-30T12:07:18;15.50;99.90
40996;DHT22;26723;57.478;12.066;2022-10-30T12:10:28;15.60;99.90
40996;DHT22;26723;57.478;12.066;2022-10-30T12:13:38;15.50;99.90
40996;DHT22;26723;57.478;12.066;2022-10-30T12:16:48;15.50;99.90
40996;DHT22;26723;57.478;12.066;2022-10-30T12:19:57;15.50;99.90
40996;DHT22;26723;57.478;12.066;2022-10-30T12:23:15;15.50;99.90
40996;DHT22;26723;57.478;12.066;2022-10-30T12:26:25;15.50;99.90
40996;DHT22;26723;57.478;12.066;2022-10-30T12:29:39;15.50;99.90
40996;DHT22;26723;57.478;12.066;2022-10-30T12:33:15;15.50;99.90
40996;DHT22;26723;57.478;12.066;2022-10-30T12:36:27;15.60;99.90
40996;DHT22;26723;57.478;12.066;2022-10-30T12:39:49;15.60;99.90
40996;DHT22;26723;57.478;12.066;2022-10-30T12:43:02;15.60;99.90
40996;DHT22;26723;57.478;12.066;2022-10-30T12:46:28;15.60;99.90
40996;DHT22;26723;57.478;12.066;2022-10-30T12:49:40;15.70;99.90
40996;DHT22;26723;57.478;12.066;2022-10-30T12:52:55;15.60;99.90
40996;DHT22;26723;57.478;12.066;2022-10-30T12:56:11;15.70;99.90
40996;DHT22;26723;57.478;12.066;2022-10-30T12:59:27;15.60;99.90
40996;DHT22;26723;57.478;12.066;2022-10-30T13:02:45;15.70;99.90
40996;DHT22;26723;57.478;12.066;2022-10-30T13:05:59;15.70;99.90
40996;DHT22;26723;57.478;12.066;2022-10-30T13:09:13;15.70;99.90
40996;DHT22;26723;57.478;12.066;2022-10-30T13:12:29;15.70;99.90
40996;DHT22;26723;57.478;12.066;2022-10-30T13:15:44;15.70;99.90
40996;DHT22;26723;57.478;12.066;2022-10-30T13:18:55;15.70;99.90
40996;DHT22;26723;57.478;12.066;2022-10-30T13:22:07;15.70;99.90
40996;DHT22;26723;57.478;12.066;2022-10-30T13:25:23;15.70;99.90
40996;DHT22;26723;57.478;12.066;2022-10-30T13:28:41;15.70;99.90
40996;DHT22;26723;57.478;12.066;2022-10-30T13:31:58;15.70;99.90
40996;DHT22;26723;57.478;12.066;2022-10-30T13:35:29;15.70;99.90
40996;DHT22;26723;57.478;12.066;2022-10-30T13:38:48;15.70;99.90
40996;DHT22;26723;57.478;12.066;2022-10-30T13:42:13;15.70;99.90
40996;DHT22;26723;57.478;12.066;2022-10-30T13:45:41;15.70;99.90
40996;DHT22;26723;57.478;12.066;2022-10-30T13:49:09;15.70;99.90
40996;DHT22;26723;57.478;12.066;2022-10-30T13:52:21;15.70;99.90
40996;DHT22;26723;57.478;12.066;2022-10-30T13:55:35;15.60;99.90
40996;DHT22;26723;57.478;12.066;2022-10-30T13:58:49;15.70;99.90
40996;DHT22;26723;57.478;12.066;2022-10-30T14:02:13;15.70;99.90
40996;DHT22;26723;57.478;12.066;2022-10-30T14:05:29;15.70;99.90
40996;DHT22;26723;57.478;12.066;2022-10-30T14:08:42;15.60;99.90
40996;DHT22;26723;57.478;12.066;2022-10-30T14:11:53;15.60;99.90
40996;DHT22;26723;57.478;12.066;2022-10-30T14:15:04;15.60;99.90
40996;DHT22;26723;57.478;12.066;2022-10-30T14:18:36;15.60;99.90
40996;DHT22;26723;57.478;12.066;2022-10-30T14:21:53;15.60;99.90
40996;DHT22;26723;57.478;12.066;2022-10-30T14:25:11;15.60;99.90
40996;DHT22;26723;57.478;12.066;2022-10-30T14:28:20;15.60;99.90
40996;DHT22;26723;57.478;12.066;2022-10-30T14:31:33;15.60;99.90
40996;DHT22;26723;57.478;12.066;2022-10-30T14:34:45;15.60;99.90
40996;DHT22;26723;57.478;12.066;2022-10-30T14:37:54;15.60;99.90
40996;DHT22;26723;57.478;12.066;2022-10-30T14:41:36;15.60;99.90
40996;DHT22;26723;57.478;12.066;2022-10-30T14:45:07;15.60;99.90
40996;DHT22;26723;57.478;12.066;2022-10-30T14:48:23;15.50;99.90
40996;DHT22;26723;57.478;12.066;2022-10-30T14:51:41;15.50;99.90
40996;DHT22;26723;57.478;12.066;2022-10-30T14:54:58;15.40;99.90
40996;DHT22;26723;57.478;12.066;2022-10-30T14:58:22;15.40;99.90
40996;DHT22;26723;57.478;12.066;2022-10-30T15:01:35;15.40;99.90
40996;DHT22;26723;57.478;12.066;2022-10-30T15:04:57;15.30;99.90
40996;DHT22;26723;57.478;12.066;2022-10-30T15:08:37;15.30;99.90
40996;DHT22;26723;57.478;12.066;2022-10-30T15:12:04;15.30;99.90
40996;DHT22;26723;57.478;12.066;2022-10-30T15:15:17;15.30;99.90
40996;DHT22;26723;57.478;12.066;2022-10-30T15:18:26;15.30;99.90
40996;DHT22;26723;57.478;12.066;2022-10-30T15:21:41;15.20;99.90
40996;DHT22;26723;57.478;12.066;2022-10-30T15:24:51;15.20;99.90
40996;DHT22;26723;57.478;12.066;2022-10-30T15:28:00;15.20;99.90
40996;DHT22;26723;57.478;12.066;2022-10-30T15:31:20;15.20;99.90
40996;DHT22;26723;57.478;12.066;2022-10-30T15:34:31;15.20;99.90
40996;DHT22;26723;57.478;12.066;2022-10-30T15:37:55;15.10;99.90
40996;DHT22;26723;57.478;12.066;2022-10-30T15:41:08;15.10;99.90
40996;DHT22;26723;57.478;12.066;2022-10-30T15:44:23;15.10;99.90
40996;DHT22;26723;57.478;12.066;2022-10-30T15:47:44;15.10;99.90
40996;DHT22;26723;57.478;12.066;2022-10-30T15:50:58;15.10;99.90
40996;DHT22;26723;57.478;12.066;2022-10-30T15:54:10;15.10;99.90
40996;DHT22;26723;57.478;12.066;2022-10-30T15:57:26;15.00;99.90
40996;DHT22;26723;57.478;12.066;2022-10-30T16:00:57;15.00;99.90
40996;DHT22;26723;57.478;12.066;2022-10-30T16:04:13;14.90;99.90
40996;DHT22;26723;57.478;12.066;2022-10-30T16:07:24;14.90;99.90
40996;DHT22;26723;57.478;12.066;2022-10-30T16:10:33;14.90;99.90
40996;DHT22;26723;57.478;12.066;2022-10-30T16:13:43;14.80;99.90
40996;DHT22;26723;57.478;12.066;2022-10-30T16:16:52;14.70;99.90
40996;DHT22;26723;57.478;12.066;2022-10-30T16:20:02;14.70;99.90
40996;DHT22;26723;57.478;12.066;2022-10-30T16:23:12;14.60;99.90
40996;DHT22;26723;57.478;12.066;2022-10-30T16:26:26;14.70;99.90
40996;DHT22;26723;57.478;12.066;2022-10-30T16:29:45;14.60;99.90
40996;DHT22;26723;57.478;12.066;2022-10-30T16:32:56;14.50;99.90
40996;DHT22;26723;57.478;12.066;2022-10-30T16:36:07;14.50;99.90
40996;DHT22;26723;57.478;12.066;2022-10-30T16:39:19;14.50;99.90
40996;DHT22;26723;57.478;12.066;2022-10-30T16:42:28;14.50;99.90
40996;DHT22;26723;57.478;12.066;2022-10-30T16:45:48;14.40;99.90
40996;DHT22;26723;57.478;12.066;2022-10-30T16:48:58;14.40;99.90
40996;DHT22;26723;57.478;12.066;2022-10-30T16:52:12;14.40;99.90
40996;DHT22;26723;57.478;12.066;2022-10-30T16:55:22;14.40;99.90
40996;DHT22;26723;57.478;12.066;2022-10-30T16:58:30;14.40;99.90
40996;DHT22;26723;57.478;12.066;2022-10-30T17:01:41;14.40;99.90
40996;DHT22;26723;57.478;12.066;2022-10-30T17:04:52;14.40;99.90
40996;DHT22;26723;57.478;12.066;2022-10-30T17:08:06;14.30;99.90
40996;DHT22;26723;57.478;12.066;2022-10-30T17:11:34;14.30;99.90
40996;DHT22;26723;57.478;12.066;2022-10-30T17:14:46;14.40;99.90
40996;DHT22;26723;57.478;12.066;2022-10-30T17:18:10;14.40;99.90
40996;DHT22;26723;57.478;12.066;2022-10-30T17:21:24;14.40;99.90
40996;DHT22;26723;57.478;12.066;2022-10-30T17:24:36;14.30;99.90
40996;DHT22;26723;57.478;12.066;2022-10-30T17:27:47;14.30;99.90
40996;DHT22;26723;57.478;12.066;2022-10-30T17:30:56;14.20;99.90
40996;DHT22;26723;57.478;12.066;2022-10-30T17:34:13;14.20;99.90
40996;DHT22;26723;57.478;12.066;2022-10-30T17:37:22;14.10;99.90
40996;DHT22;26723;57.478;12.066;2022-10-30T17:40:30;14.00;99.90
40996;DHT22;26723;57.478;12.066;2022-10-30T17:43:47;14.00;99.90
40996;DHT22;26723;57.478;12.066;2022-10-30T17:46:56;14.00;99.90
40996;DHT22;26723;57.478;12.066;2022-10-30T17:50:06;14.00;99.90
40996;DHT22;26723;57.478;12.066;2022-10-30T17:53:17;13.90;99.90
40996;DHT22;26723;57.478;12.066;2022-10-30T17:56:30;13.90;99.90
40996;DHT22;26723;57.478;12.066;2022-10-30T17:59:40;13.90;99.90
40996;DHT22;26723;57.478;12.066;2022-10-30T18:02:49;13.80;99.90
40996;DHT22;26723;57.478;12.066;2022-10-30T18:06:00;13.80;99.90
40996;DHT22;26723;57.478;12.066;2022-10-30T18:09:09;13.80;99.90
40996;DHT22;26723;57.478;12.066;2022-10-30T18:12:18;13.80;99.90
40996;DHT22;26723;57.478;12.066;2022-10-30T18:15:29;13.70;99.90
40996;DHT22;26723;57.478;12.066;2022-10-30T18:18:38;13.70;99.90
40996;DHT22;26723;57.478;12.066;2022-10-30T18:21:48;13.60;99.90
40996;DHT22;26723;57.478;12.066;2022-10-30T18:24:57;13.60;99.90
40996;DHT22;26723;57.478;12.066;2022-10-30T18:28:06;13.60;99.90
40996;DHT22;26723;57.478;12.066;2022-10-30T18:31:16;13.50;99.90
40996;DHT22;26723;57.478;12.066;2022-10-30T18:34:25;13.50;99.90
40996;DHT22;26723;57.478;12.066;2022-10-30T18:37:34;13.60;99.90
40996;DHT22;26723;57.478;12.066;2022-10-30T18:40:45;13.60;99.90
40996;DHT22;26723;57.478;12.066;2022-10-30T18:43:53;13.60;99.90
40996;DHT22;26723;57.478;12.066;2022-10-30T18:47:03;13.60;99.90
40996;DHT22;26723;57.478;12.066;2022-10-30T18:50:12;13.60;99.90
40996;DHT22;26723;57.478;12.066;2022-10-30T18:53:22;13.60;99.90
40996;DHT22;26723;57.478;12.066;2022-10-30T18:56:30;13.60;99.90
40996;DHT22;26723;57.478;12.066;2022-10-30T18:59:39;13.60;99.90
40996;DHT22;26723;57.478;12.066;2022-10-30T19:02:47;13.50;99.90
40996;DHT22;26723;57.478;12.066;2022-10-30T19:05:56;13.50;99.90
40996;DHT22;26723;57.478;12.066;2022-10-30T19:09:06;13.50;99.90
40996;DHT22;26723;57.478;12.066;2022-10-30T19:12:14;13.50;99.90
40996;DHT22;26723;57.478;12.066;2022-10-30T19:15:25;13.50;99.90
40996;DHT22;26723;57.478;12.066;2022-10-30T19:18:35;13.50;99.90
40996;DHT22;26723;57.478;12.066;2022-10-30T19:21:44;13.50;99.90
40996;DHT22;26723;57.478;12.066;2022-10-30T19:24:53;13.50;99.90
40996;DHT22;26723;57.478;12.066;2022-10-30T19:28:02;13.50;99.90
40996;DHT22;26723;57.478;12.066;2022-10-30T19:31:12;13.50;99.90
40996;DHT22;26723;57.478;12.066;2022-10-30T19:34:21;13.50;99.90
40996;DHT22;26723;57.478;12.066;2022-10-30T19:37:30;13.40;99.90
40996;DHT22;26723;57.478;12.066;2022-10-30T19:40:40;13.40;99.90
40996;DHT22;26723;57.478;12.066;2022-10-30T19:43:50;13.40;99.90
40996;DHT22;26723;57.478;12.066;2022-10-30T19:46:58;13.40;99.90
40996;DHT22;26723;57.478;12.066;2022-10-30T19:50:20;13.30;99.90
40996;DHT22;26723;57.478;12.066;2022-10-30T19:53:29;13.30;99.90
40996;DHT22;26723;57.478;12.066;2022-10-30T19:56:39;13.30;99.90
40996;DHT22;26723;57.478;12.066;2022-10-30T19:59:49;13.30;99.90
40996;DHT22;26723;57.478;12.066;2022-10-30T20:02:58;13.20;99.90
40996;DHT22;26723;57.478;12.066;2022-10-30T20:06:08;13.30;99.90
40996;DHT22;26723;57.478;12.066;2022-10-30T20:09:17;13.30;99.90
40996;DHT22;26723;57.478;12.066;2022-10-30T20:12:27;13.30;99.90